This is the latest recevied weather packets stored in our database for station/object SP1JT-10. If no packets are shown the sender has not sent any weather packets the latest 10 day(s).
| Time | Temp. | Humidity | Pressure | Rain* | Wind** | Luminosity | Snow |
|---|---|---|---|---|---|---|---|
| 1777888756 | 17.22° C | 56% | 1013.4 hPa | - | - | - | - |
| 1777888154 | 16.67° C | 57% | 1013.4 hPa | - | - | - | - |
| 1777886353 | 16.67° C | 60% | 1013.4 hPa | - | - | - | - |
| 1777885154 | 15.56° C | 62% | 1013.4 hPa | - | - | - | - |
| 1777880970 | 14.44° C | 68% | 1012.7 hPa | - | - | - | - |
| 1777875230 | 13.89° C | 63% | 1012.6 hPa | - | - | - | - |
| 1777866555 | 13.33° C | 63% | 1011.9 hPa | - | - | - | - |
| 1777861754 | 12.78° C | 63% | 1011.3 hPa | - | - | - | - |
| 1777860554 | 13.33° C | 63% | 1011.2 hPa | - | - | - | - |
| 1777859953 | 13.33° C | 63% | 1011.2 hPa | - | - | - | - |
| 1777858754 | 13.33° C | 62% | 1011.1 hPa | - | - | - | - |
| 1777854554 | 14.44° C | 55% | 1011 hPa | - | - | - | - |
| 1777852154 | 14.44° C | 56% | 1010.9 hPa | - | - | - | - |
| 1777849153 | 13.89° C | 58% | 1010.9 hPa | - | - | - | - |
| 1777844954 | 15° C | 53% | 1010.7 hPa | - | - | - | - |
| 1777844353 | 15° C | 52% | 1010.6 hPa | - | - | - | - |
| 1777825155 | 23.33° C | 29% | 1009.9 hPa | - | - | - | - |
| 1777824554 | 23.89° C | 29% | 1009.8 hPa | - | - | - | - |
| 1777823954 | 23.89° C | 28% | 1009.7 hPa | - | - | - | - |
| 1777823355 | 25° C | 27% | 1009.4 hPa | - | - | - | - |
| 1777819754 | 26.11° C | 26% | 1009.7 hPa | - | - | - | - |
| 1777817954 | 26.11° C | 28% | 1010.1 hPa | - | - | - | - |
| 1777813752 | 31.67° C | 23% | 1009.5 hPa | - | - | - | - |
| 1777807153 | 21.67° C | 32% | 1012.2 hPa | - | - | - | - |
| 1777805954 | 21.11° C | 34% | 1012.5 hPa | - | - | - | - |
* Rain since midnight (hover to see other rain measurements)
** Current wind speed in m/s (hover to see current wind gust speed)